Time;durP1;ratioP1;P1;durP2;ratioP2;P2;SDS_P1;SDS_P2;PMS_P1;PMS_P2;Temp;Humidity;BMP_temperature;BMP_pressure;BME280_temperature;BME280_humidity;BME280_pressure;Samples;Min_cycle;Max_cycle;Signal;HPM_P1;HPM_P2
2022/11/25 00:00:47;;;;;;;17.58;4.68;;;6.70;99.90;;;;;;5047620;28;20037;-66
2022/11/25 00:03:13;;;;;;;17.80;4.40;;;6.70;99.90;;;;;;5043349;28;20514;-66
2022/11/25 00:05:39;;;;;;;15.93;4.30;;;6.70;99.90;;;;;;5042964;28;20192;-66
2022/11/25 00:08:05;;;;;;;19.30;4.00;;;6.70;99.90;;;;;;5040883;28;20041;-66
2022/11/25 00:10:31;;;;;;;17.30;4.53;;;6.70;99.90;;;;;;5045521;28;20306;-66
2022/11/25 00:12:56;;;;;;;15.00;3.75;;;6.70;99.90;;;;;;5040698;28;20042;-66
2022/11/25 00:15:22;;;;;;;17.85;4.55;;;6.70;99.90;;;;;;5045082;28;20095;-66
2022/11/25 00:17:47;;;;;;;16.40;4.13;;;6.80;99.90;;;;;;5039888;28;20428;-66
2022/11/25 00:20:13;;;;;;;18.35;4.55;;;6.80;99.90;;;;;;5041759;28;20075;-66
2022/11/25 00:22:39;;;;;;;13.82;4.00;;;6.80;99.90;;;;;;5045896;28;20088;-66
2022/11/25 00:25:05;;;;;;;20.58;4.45;;;6.80;99.90;;;;;;5043801;28;20106;-66
2022/11/25 00:27:31;;;;;;;16.63;4.43;;;6.90;99.90;;;;;;5034095;28;20056;-66
2022/11/25 00:29:57;;;;;;;21.95;4.65;;;6.90;99.90;;;;;;5040597;28;20774;-67
2022/11/25 00:32:22;;;;;;;20.13;4.53;;;6.90;99.90;;;;;;5040127;28;20041;-66
2022/11/25 00:34:48;;;;;;;25.15;5.50;;;6.90;99.90;;;;;;5039934;28;20040;-66
2022/11/25 00:37:14;;;;;;;15.40;3.78;;;7.00;99.90;;;;;;5041472;28;20041;-67
2022/11/25 00:39:39;;;;;;;24.08;4.57;;;7.00;99.90;;;;;;5038297;28;20057;-67
2022/11/25 00:44:49;;;;;;;17.70;4.45;;;7.10;99.90;;;;;;5045023;28;20056;-67
2022/11/25 00:47:17;;;;;;;20.63;5.45;;;7.10;99.90;;;;;;5043117;28;20029;-67
2022/11/25 00:49:48;;;;;;;17.88;4.82;;;7.10;99.90;;;;;;5044815;28;20049;-66
2022/11/25 00:52:19;;;;;;;15.65;4.13;;;7.20;99.90;;;;;;5045035;28;20037;-67
2022/11/25 00:54:46;;;;;;;16.98;4.53;;;7.20;99.90;;;;;;5038206;28;20034;-67
2022/11/25 00:57:13;;;;;;;20.17;4.93;;;7.20;99.90;;;;;;5042496;28;20536;-67
2022/11/25 00:59:39;;;;;;;19.95;4.68;;;7.20;99.90;;;;;;5041222;28;20045;-67
2022/11/25 01:02:06;;;;;;;19.75;5.40;;;7.20;99.90;;;;;;5045388;28;20029;-67
2022/11/25 01:04:32;;;;;;;18.35;5.03;;;7.20;99.90;;;;;;5040401;28;20649;-67
2022/11/25 01:06:58;;;;;;;21.67;5.35;;;7.10;99.90;;;;;;5044443;28;20029;-67
2022/11/25 01:09:25;;;;;;;18.73;4.72;;;7.20;99.90;;;;;;5043265;28;20037;-67
2022/11/25 01:11:52;;;;;;;17.50;4.43;;;7.10;99.90;;;;;;5041627;28;20476;-67
2022/11/25 01:14:19;;;;;;;20.00;4.75;;;7.10;99.90;;;;;;5040537;28;20041;-67
2022/11/25 01:16:45;;;;;;;17.85;4.50;;;7.20;99.90;;;;;;5042738;28;20087;-67
2022/11/25 01:19:11;;;;;;;15.40;5.68;;;7.10;99.90;;;;;;5045487;28;20420;-67
2022/11/25 01:21:37;;;;;;;15.73;4.32;;;7.10;99.90;;;;;;5041830;28;20406;-67
2022/11/25 01:24:05;;;;;;;16.83;4.82;;;7.20;99.90;;;;;;5043230;28;20032;-67
2022/11/25 01:26:32;;;;;;;19.15;5.18;;;7.30;99.90;;;;;;5037129;28;20485;-67
2022/11/25 01:29:04;;;;;;;20.13;4.53;;;7.30;99.90;;;;;;5040340;28;20488;-66
2022/11/25 01:31:33;;;;;;;14.43;4.30;;;7.30;99.90;;;;;;5037650;28;20504;-67
2022/11/25 01:34:20;;;;;;;20.52;4.93;;;7.30;99.90;;;;;;5042726;28;20186;-67
2022/11/25 01:36:46;;;;;;;19.92;5.05;;;7.30;99.90;;;;;;5036939;28;20091;-67
2022/11/25 01:39:16;;;;;;;16.75;4.68;;;7.30;99.90;;;;;;5043262;28;20447;-67
2022/11/25 01:41:42;;;;;;;21.50;4.50;;;7.40;99.90;;;;;;5036196;28;20120;-66
2022/11/25 01:44:13;;;;;;;18.33;4.05;;;7.40;99.90;;;;;;5041553;28;20112;-67
2022/11/25 01:46:44;;;;;;;21.63;4.72;;;7.40;99.90;;;;;;5042106;28;20037;-66
2022/11/25 01:49:16;;;;;;;18.83;4.80;;;7.40;99.90;;;;;;5049647;28;20132;-67
2022/11/25 01:51:45;;;;;;;18.45;4.90;;;7.40;99.90;;;;;;5048542;28;20044;-66
2022/11/25 01:54:14;;;;;;;19.52;4.55;;;7.40;99.90;;;;;;5048309;28;20133;-67
2022/11/25 01:56:49;;;;;;;19.88;4.78;;;7.40;99.90;;;;;;5054816;28;20481;-66
2022/11/25 01:59:15;;;;;;;24.40;5.18;;;7.40;99.90;;;;;;5051612;28;20057;-67
2022/11/25 02:01:41;;;;;;;19.15;5.20;;;7.50;99.90;;;;;;5054859;28;20193;-67
2022/11/25 02:04:09;;;;;;;18.13;4.78;;;7.40;99.90;;;;;;5054539;28;20036;-67
2022/11/25 02:06:41;;;;;;;20.38;4.93;;;7.40;99.90;;;;;;5059166;28;20089;-67
2022/11/25 02:09:07;;;;;;;20.48;5.05;;;7.40;99.90;;;;;;5056359;28;20092;-67
2022/11/25 02:11:37;;;;;;;21.40;5.63;;;7.50;99.90;;;;;;5053070;28;20098;-67
2022/11/25 02:14:03;;;;;;;21.13;4.80;;;7.40;99.90;;;;;;5053698;28;20069;-67
2022/11/25 02:16:29;;;;;;;27.13;5.32;;;7.50;99.90;;;;;;5051715;28;20049;-67
2022/11/25 02:18:55;;;;;;;24.63;5.07;;;7.40;99.90;;;;;;5053199;28;20589;-66
2022/11/25 02:21:32;;;;;;;20.80;5.78;;;7.40;99.90;;;;;;5051011;28;20045;-67
2022/11/25 02:24:14;;;;;;;23.80;5.60;;;7.40;99.90;;;;;;5058806;28;20040;-67
2022/11/25 02:26:40;;;;;;;19.38;5.00;;;7.40;99.90;;;;;;5054222;28;20401;-67
2022/11/25 02:29:05;;;;;;;23.08;5.47;;;7.40;99.90;;;;;;5052978;28;20045;-67
2022/11/25 02:31:31;;;;;;;23.60;6.18;;;7.40;99.90;;;;;;5054777;28;20041;-67
2022/11/25 02:33:57;;;;;;;24.98;5.10;;;7.40;99.90;;;;;;5048264;28;20029;-67
2022/11/25 02:36:23;;;;;;;23.27;5.43;;;7.50;99.90;;;;;;5051428;28;20101;-68
2022/11/25 02:38:54;;;;;;;22.15;6.03;;;7.40;99.90;;;;;;5049164;28;20094;-68
2022/11/25 02:41:27;;;;;;;18.77;5.57;;;7.40;99.90;;;;;;5050100;28;20037;-67
2022/11/25 02:43:53;;;;;;;22.85;6.05;;;7.40;99.90;;;;;;5046010;28;20049;-67
2022/11/25 02:46:23;;;;;;;21.95;6.53;;;7.50;99.90;;;;;;5054368;28;20030;-67
2022/11/25 02:48:49;;;;;;;19.58;6.45;;;7.40;99.90;;;;;;5052633;28;20068;-67
2022/11/25 02:51:17;;;;;;;19.52;6.30;;;7.40;99.90;;;;;;5050457;28;20120;-67
2022/11/25 02:53:43;;;;;;;25.48;6.38;;;7.50;99.90;;;;;;5049772;28;20033;-67
2022/11/25 02:56:10;;;;;;;24.08;6.47;;;7.50;99.90;;;;;;5052540;28;20493;-67
2022/11/25 02:58:36;;;;;;;22.85;6.30;;;7.50;99.90;;;;;;5048951;28;20049;-67
2022/11/25 03:01:02;;;;;;;28.80;6.55;;;7.50;99.90;;;;;;5051599;28;20521;-67
2022/11/25 03:03:28;;;;;;;20.85;6.82;;;7.50;99.90;;;;;;5045227;28;20360;-67
2022/11/25 03:05:53;;;;;;;41.05;7.45;;;7.60;99.90;;;;;;5043181;28;20424;-68
2022/11/25 03:08:19;;;;;;;31.77;6.82;;;7.60;99.90;;;;;;5045586;28;20048;-68
2022/11/25 03:10:45;;;;;;;25.00;7.18;;;7.50;99.90;;;;;;5043955;28;20132;-67
2022/11/25 03:13:12;;;;;;;24.50;7.63;;;7.60;99.90;;;;;;5047116;28;20052;-67
2022/11/25 03:15:37;;;;;;;33.65;7.97;;;7.60;99.90;;;;;;5055341;28;20045;-67
2022/11/25 03:18:04;;;;;;;34.05;7.75;;;7.60;99.90;;;;;;5053784;28;20037;-67
2022/11/25 03:20:30;;;;;;;33.90;8.15;;;7.60;99.90;;;;;;5047190;28;20037;-67
2022/11/25 03:22:56;;;;;;;31.58;7.93;;;7.60;99.90;;;;;;5049212;28;20111;-68
2022/11/25 03:25:22;;;;;;;29.70;8.70;;;7.60;99.90;;;;;;5049013;28;20542;-67
2022/11/25 03:27:47;;;;;;;30.77;7.78;;;7.70;99.90;;;;;;5047148;28;20449;-68
2022/11/25 03:30:19;;;;;;;23.17;7.72;;;7.70;99.90;;;;;;5043280;28;20116;-68
2022/11/25 03:32:45;;;;;;;28.27;7.28;;;7.70;99.90;;;;;;5044264;28;20096;-67
2022/11/25 03:35:12;;;;;;;34.22;8.57;;;7.80;99.90;;;;;;5044185;28;20076;-68
2022/11/25 03:37:38;;;;;;;24.05;7.45;;;7.70;99.90;;;;;;5043540;28;20098;-68
2022/11/25 03:40:05;;;;;;;25.75;7.18;;;7.70;99.90;;;;;;5044467;28;20045;-68
2022/11/25 03:42:31;;;;;;;21.88;7.85;;;7.80;99.90;;;;;;5049293;28;20511;-68
2022/11/25 03:44:56;;;;;;;22.90;6.82;;;7.80;99.90;;;;;;5054244;28;20037;-67
2022/11/25 03:47:22;;;;;;;40.08;8.15;;;7.70;99.90;;;;;;5058479;28;20107;-68
2022/11/25 03:49:48;;;;;;;38.88;7.88;;;7.80;99.90;;;;;;5048965;28;20037;-68
2022/11/25 03:52:14;;;;;;;27.40;7.35;;;7.80;99.90;;;;;;5047742;28;20147;-68
2022/11/25 03:54:39;;;;;;;26.95;8.20;;;7.80;99.90;;;;;;5042619;28;20088;-68
2022/11/25 03:57:05;;;;;;;23.13;6.85;;;7.80;99.90;;;;;;5042780;28;20192;-67
2022/11/25 03:59:31;;;;;;;31.20;8.05;;;7.80;99.90;;;;;;5035527;28;20048;-68
2022/11/25 04:01:56;;;;;;;33.75;7.90;;;7.80;99.90;;;;;;5047375;28;20227;-68
2022/11/25 04:04:22;;;;;;;35.90;8.60;;;7.80;99.90;;;;;;5043718;28;20040;-68
2022/11/25 04:06:48;;;;;;;27.13;7.70;;;7.80;99.90;;;;;;5045033;28;20055;-68
2022/11/25 04:09:14;;;;;;;34.45;9.45;;;7.90;99.90;;;;;;5043052;28;20116;-68
2022/11/25 04:14:24;;;;;;;29.60;8.57;;;7.80;99.90;;;;;;5046466;28;20141;-68
2022/11/25 04:16:49;;;;;;;29.77;8.55;;;7.80;99.90;;;;;;5044692;28;20536;-67
2022/11/25 04:19:15;;;;;;;26.45;8.27;;;7.80;99.90;;;;;;5046444;28;20041;-68
2022/11/25 04:21:41;;;;;;;36.30;8.13;;;7.90;99.90;;;;;;5039244;28;20056;-68
2022/11/25 04:24:07;;;;;;;34.40;8.88;;;7.80;99.90;;;;;;5045744;28;20113;-68
2022/11/25 04:26:33;;;;;;;36.63;8.75;;;7.90;99.90;;;;;;5043143;28;20041;-68
2022/11/25 04:28:58;;;;;;;29.15;8.55;;;7.90;99.90;;;;;;5042745;28;20095;-68
2022/11/25 04:31:24;;;;;;;31.73;8.73;;;7.80;99.90;;;;;;5045074;28;20029;-68
2022/11/25 04:33:50;;;;;;;31.75;9.00;;;7.90;99.90;;;;;;5042378;28;20067;-68
2022/11/25 04:36:15;;;;;;;36.63;8.90;;;7.90;99.90;;;;;;5045921;28;20084;-68
2022/11/25 04:38:41;;;;;;;24.20;8.77;;;7.90;99.90;;;;;;5045558;28;20045;-68
2022/11/25 04:41:07;;;;;;;27.00;8.77;;;7.90;99.90;;;;;;5037716;28;20053;-67
2022/11/25 04:43:33;;;;;;;37.00;9.85;;;7.90;99.90;;;;;;5044525;28;20354;-68
2022/11/25 04:45:59;;;;;;;33.42;9.10;;;7.80;99.90;;;;;;5038775;28;20036;-67
2022/11/25 04:48:24;;;;;;;28.25;8.75;;;7.90;99.90;;;;;;5041368;28;20542;-68
2022/11/25 04:50:50;;;;;;;28.85;9.20;;;7.80;99.90;;;;;;5040261;28;20168;-67
2022/11/25 04:53:18;;;;;;;30.67;9.40;;;7.90;99.90;;;;;;5041883;28;20033;-68
2022/11/25 04:55:43;;;;;;;25.35;8.55;;;7.90;99.90;;;;;;5043450;28;20049;-67
2022/11/25 04:58:13;;;;;;;30.25;9.10;;;7.90;99.90;;;;;;5041067;28;20037;-67
2022/11/25 05:00:39;;;;;;;39.47;10.52;;;7.90;99.90;;;;;;5042689;28;20151;-67
2022/11/25 05:03:05;;;;;;;28.90;9.55;;;7.90;99.90;;;;;;5043563;28;20116;-67
2022/11/25 05:05:31;;;;;;;33.60;9.73;;;7.80;99.90;;;;;;5041925;28;20041;-67
2022/11/25 05:07:56;;;;;;;33.38;9.88;;;7.80;99.90;;;;;;5040676;28;20044;-67
2022/11/25 05:10:22;;;;;;;31.40;9.93;;;7.90;99.90;;;;;;5041461;28;20136;-67
2022/11/25 05:12:48;;;;;;;31.83;10.07;;;7.90;99.90;;;;;;5039874;28;20496;-67
2022/11/25 05:15:14;;;;;;;38.03;10.32;;;7.90;99.90;;;;;;5041710;28;20103;-67
2022/11/25 05:17:40;;;;;;;28.35;9.85;;;7.90;99.90;;;;;;5042459;28;20496;-67
2022/11/25 05:20:06;;;;;;;30.75;9.77;;;7.90;99.90;;;;;;5036247;28;20037;-67
2022/11/25 05:22:33;;;;;;;30.45;9.55;;;7.90;99.90;;;;;;5039140;28;20095;-67
2022/11/25 05:24:59;;;;;;;31.63;10.02;;;7.90;99.90;;;;;;5039705;28;20033;-67
2022/11/25 05:27:26;;;;;;;34.80;9.57;;;7.90;99.90;;;;;;5042041;28;20064;-67
2022/11/25 05:29:51;;;;;;;29.55;9.68;;;7.90;99.90;;;;;;5041538;28;20523;-67
2022/11/25 05:32:17;;;;;;;32.05;9.35;;;7.90;99.90;;;;;;5038888;28;20033;-67
2022/11/25 05:34:43;;;;;;;28.80;9.73;;;7.90;99.90;;;;;;5037828;28;20439;-67
2022/11/25 05:37:12;;;;;;;29.73;9.40;;;7.90;99.90;;;;;;5045651;28;20041;-67
2022/11/25 05:39:38;;;;;;;33.92;10.02;;;7.90;99.90;;;;;;5037573;28;20044;-67
2022/11/25 05:42:03;;;;;;;23.55;8.75;;;8.00;99.90;;;;;;5038895;28;20396;-67
2022/11/25 05:44:29;;;;;;;36.55;9.52;;;7.90;99.90;;;;;;5038983;28;20037;-67
2022/11/25 05:46:55;;;;;;;28.35;8.18;;;8.00;99.90;;;;;;5040189;28;20037;-67
2022/11/25 05:49:21;;;;;;;32.42;8.90;;;8.00;99.90;;;;;;5047200;28;20032;-67
2022/11/25 05:51:47;;;;;;;30.88;8.02;;;8.00;99.90;;;;;;5043452;28;20061;-67
2022/11/25 05:54:13;;;;;;;33.38;8.27;;;8.00;99.90;;;;;;5037817;28;20037;-67
2022/11/25 05:56:39;;;;;;;34.53;9.43;;;7.90;99.90;;;;;;5040804;28;20067;-67
2022/11/25 05:59:05;;;;;;;36.95;8.75;;;8.00;99.90;;;;;;5041091;28;20033;-67
2022/11/25 06:01:32;;;;;;;33.70;8.10;;;8.00;99.90;;;;;;5037342;28;20045;-67
2022/11/25 06:04:02;;;;;;;30.42;8.60;;;8.00;99.90;;;;;;5038605;28;20040;-67
2022/11/25 06:06:27;;;;;;;30.10;7.68;;;8.10;99.90;;;;;;5041396;28;20056;-67
2022/11/25 06:08:53;;;;;;;24.67;6.53;;;8.00;99.90;;;;;;5043496;28;20045;-67
2022/11/25 06:11:19;;;;;;;31.73;7.28;;;8.10;99.90;;;;;;5036344;28;20401;-67
2022/11/25 06:13:45;;;;;;;32.30;7.28;;;8.10;99.90;;;;;;5041307;28;20507;-67
2022/11/25 06:16:13;;;;;;;20.40;5.90;;;8.10;99.90;;;;;;5041446;28;20051;-67
2022/11/25 06:18:39;;;;;;;26.17;5.68;;;8.10;99.90;;;;;;5044057;28;20400;-67
2022/11/25 06:21:06;;;;;;;22.05;5.25;;;8.10;99.90;;;;;;5040746;28;20044;-67
2022/11/25 06:23:32;;;;;;;17.33;4.80;;;8.10;99.90;;;;;;5034132;28;20040;-67
2022/11/25 06:26:13;;;;;;;19.45;5.53;;;8.10;99.90;;;;;;5038096;28;20038;-67
2022/11/25 06:28:39;;;;;;;26.23;5.95;;;8.10;99.90;;;;;;5041355;28;20480;-67
2022/11/25 06:31:10;;;;;;;24.73;5.78;;;8.10;99.90;;;;;;5042465;28;20064;-67
2022/11/25 06:33:36;;;;;;;27.17;6.00;;;8.10;99.90;;;;;;5039480;28;20040;-67
2022/11/25 06:36:08;;;;;;;26.33;4.90;;;8.10;99.90;;;;;;5042335;28;20528;-67
2022/11/25 06:38:34;;;;;;;20.38;4.60;;;8.20;99.90;;;;;;5045029;28;20091;-67
2022/11/25 06:41:02;;;;;;;20.52;4.80;;;8.10;99.90;;;;;;5032651;28;20485;-67
2022/11/25 06:43:28;;;;;;;26.77;5.57;;;8.10;99.90;;;;;;5044823;28;20036;-67
2022/11/25 06:45:53;;;;;;;19.77;5.32;;;8.10;99.90;;;;;;5036772;28;20049;-67
2022/11/25 06:48:19;;;;;;;22.73;4.70;;;8.10;99.90;;;;;;5038608;28;20477;-67
2022/11/25 06:50:53;;;;;;;17.58;4.55;;;8.20;99.90;;;;;;5041302;28;20073;-66
2022/11/25 06:53:19;;;;;;;14.60;4.28;;;8.20;99.90;;;;;;5031005;28;20049;-67
2022/11/25 06:55:45;;;;;;;21.20;4.43;;;8.20;99.90;;;;;;5029895;28;20338;-67
2022/11/25 06:58:10;;;;;;;20.65;5.15;;;8.20;99.90;;;;;;5030396;28;20128;-67
2022/11/25 07:00:36;;;;;;;22.00;5.07;;;8.20;99.90;;;;;;5028737;28;20045;-66
2022/11/25 07:03:02;;;;;;;21.13;4.38;;;8.10;99.90;;;;;;5030993;28;20041;-67
2022/11/25 07:05:27;;;;;;;19.15;4.28;;;8.10;99.90;;;;;;5031008;28;20053;-67
2022/11/25 07:07:53;;;;;;;21.55;4.38;;;8.00;99.90;;;;;;5036007;28;20051;-67
2022/11/25 07:10:19;;;;;;;24.42;5.03;;;8.00;99.90;;;;;;5039330;28;20033;-67
2022/11/25 07:12:44;;;;;;;16.63;4.03;;;7.90;99.90;;;;;;5037021;28;20132;-67
2022/11/25 07:15:10;;;;;;;17.02;3.70;;;7.90;99.90;;;;;;5044644;28;20045;-67
2022/11/25 07:17:36;;;;;;;27.95;4.43;;;7.80;99.90;;;;;;5038068;28;20042;-67
2022/11/25 07:20:02;;;;;;;21.80;4.60;;;7.70;99.90;;;;;;5041472;28;20434;-67
2022/11/25 07:22:28;;;;;;;19.67;4.18;;;7.70;99.90;;;;;;5038074;28;20048;-67
2022/11/25 07:24:54;;;;;;;15.05;3.78;;;7.60;99.90;;;;;;5040932;28;20028;-66
2022/11/25 07:27:19;;;;;;;17.35;4.40;;;7.60;99.90;;;;;;5037551;28;20098;-67
2022/11/25 07:29:45;;;;;;;16.58;3.55;;;7.60;99.90;;;;;;5042999;28;20046;-67
2022/11/25 07:32:11;;;;;;;12.55;3.60;;;7.50;99.90;;;;;;5041110;28;20037;-66
2022/11/25 07:34:37;;;;;;;20.88;3.85;;;7.40;99.90;;;;;;5043987;28;20041;-66
2022/11/25 07:37:02;;;;;;;23.10;4.13;;;7.40;99.90;;;;;;5040031;28;20068;-66
2022/11/25 07:39:28;;;;;;;21.15;4.10;;;7.30;99.90;;;;;;5043795;28;20047;-67
2022/11/25 07:41:54;;;;;;;23.73;4.45;;;7.40;99.90;;;;;;5038725;28;20096;-67
2022/11/25 07:44:20;;;;;;;20.40;4.50;;;7.40;99.90;;;;;;5042779;28;20045;-67
2022/11/25 07:46:48;;;;;;;23.02;4.55;;;7.40;99.90;;;;;;5040147;28;20057;-66
2022/11/25 07:49:19;;;;;;;16.00;4.55;;;7.30;99.90;;;;;;5041505;28;20047;-67
2022/11/25 07:51:58;;;;;;;17.88;4.20;;;7.20;99.90;;;;;;5039061;28;20128;-66
2022/11/25 07:54:24;;;;;;;21.40;4.07;;;7.40;99.90;;;;;;5043910;28;20032;-66
2022/11/25 07:56:50;;;;;;;20.48;5.90;;;7.40;99.90;;;;;;5037283;28;20093;-66
2022/11/25 07:59:21;;;;;;;24.77;5.95;;;7.40;99.90;;;;;;5048352;28;20121;-66
2022/11/25 08:01:52;;;;;;;15.20;4.72;;;7.40;99.90;;;;;;5047905;28;20044;-66
2022/11/25 08:04:18;;;;;;;25.90;7.55;;;7.40;99.90;;;;;;5044585;28;20160;-66
2022/11/25 08:06:46;;;;;;;30.88;12.93;;;7.40;99.90;;;;;;5037969;28;20117;-66
2022/11/25 08:09:18;;;;;;;38.47;14.35;;;7.30;99.90;;;;;;5044579;28;20107;-66
2022/11/25 08:11:44;;;;;;;33.95;14.20;;;7.50;99.90;;;;;;5043293;28;20040;-66
2022/11/25 08:14:10;;;;;;;31.77;15.07;;;7.40;99.90;;;;;;5047387;28;20068;-66
2022/11/25 08:16:36;;;;;;;21.50;7.00;;;7.40;99.90;;;;;;5049892;28;20484;-66
2022/11/25 08:19:04;;;;;;;23.20;5.35;;;7.50;99.90;;;;;;5044636;28;20048;-66
2022/11/25 08:21:30;;;;;;;14.07;4.38;;;7.50;99.90;;;;;;5046193;28;20041;-66
2022/11/25 08:23:56;;;;;;;26.95;5.60;;;7.60;99.90;;;;;;5047157;28;20406;-66
2022/11/25 08:26:25;;;;;;;20.60;4.88;;;7.70;99.90;;;;;;5044866;28;20053;-66
2022/11/25 08:28:52;;;;;;;18.98;5.88;;;7.70;99.90;;;;;;5043639;28;20045;-66
2022/11/25 08:31:21;;;;;;;20.25;5.10;;;7.80;99.90;;;;;;5045059;28;20048;-66
2022/11/25 08:33:48;;;;;;;16.90;4.72;;;7.90;99.90;;;;;;5040754;28;20493;-66
2022/11/25 08:36:15;;;;;;;18.98;5.32;;;7.90;99.90;;;;;;5040176;28;20111;-66
2022/11/25 08:38:43;;;;;;;17.27;4.75;;;8.00;99.90;;;;;;5043702;28;20087;-66
2022/11/25 08:41:30;;;;;;;17.27;5.25;;;8.00;99.90;;;;;;5040662;28;20108;-66
2022/11/25 08:43:57;;;;;;;18.17;4.47;;;8.20;99.90;;;;;;5039060;28;20048;-66
2022/11/25 08:46:27;;;;;;;20.63;5.28;;;8.20;99.90;;;;;;5043310;28;20529;-66
2022/11/25 08:48:53;;;;;;;19.77;5.10;;;8.30;99.90;;;;;;5043089;28;20096;-66
2022/11/25 08:51:23;;;;;;;15.45;4.20;;;8.30;99.90;;;;;;5043244;28;20492;-66
2022/11/25 08:53:51;;;;;;;15.00;5.75;;;8.30;99.90;;;;;;5041181;28;20147;-66
2022/11/25 08:56:18;;;;;;;19.45;4.93;;;8.40;99.90;;;;;;5045611;28;20402;-66
2022/11/25 08:58:44;;;;;;;13.75;5.18;;;8.40;99.90;;;;;;5046714;28;20124;-66
2022/11/25 09:01:11;;;;;;;12.48;5.05;;;8.50;99.90;;;;;;5039749;28;20060;-66
2022/11/25 09:03:39;;;;;;;15.18;5.28;;;8.50;99.90;;;;;;5044977;28;20044;-66
2022/11/25 09:06:07;;;;;;;14.10;5.30;;;8.50;99.90;;;;;;5041823;28;20366;-66
2022/11/25 09:08:33;;;;;;;13.93;4.97;;;8.60;99.90;;;;;;5047816;28;20477;-66
2022/11/25 09:10:59;;;;;;;12.82;4.90;;;8.60;99.90;;;;;;5040465;28;20144;-66
2022/11/25 09:13:25;;;;;;;15.60;5.00;;;8.60;99.90;;;;;;5040313;28;20129;-66
2022/11/25 09:15:52;;;;;;;16.42;5.35;;;8.70;99.90;;;;;;5041217;28;20099;-66
2022/11/25 09:18:19;;;;;;;15.20;4.55;;;8.80;99.90;;;;;;5043530;28;20120;-66
2022/11/25 09:20:46;;;;;;;21.25;5.50;;;8.80;99.90;;;;;;5042896;28;20045;-66
2022/11/25 09:23:12;;;;;;;13.55;5.00;;;8.80;99.90;;;;;;5046468;28;20091;-66
2022/11/25 09:25:38;;;;;;;11.40;5.07;;;8.80;99.90;;;;;;5042123;28;20129;-66
2022/11/25 09:28:04;;;;;;;17.75;5.50;;;8.80;99.90;;;;;;5047010;28;20041;-66
2022/11/25 09:30:30;;;;;;;10.93;4.57;;;8.80;99.90;;;;;;5039383;28;20133;-66
2022/11/25 09:32:56;;;;;;;12.32;5.22;;;8.80;99.90;;;;;;5040560;28;20041;-66
2022/11/25 09:35:23;;;;;;;13.63;4.82;;;8.90;99.90;;;;;;5039910;28;20037;-66
2022/11/25 09:37:49;;;;;;;13.43;4.93;;;8.90;99.90;;;;;;5044686;28;20097;-66
2022/11/25 09:40:35;;;;;;;14.73;5.10;;;9.00;99.90;;;;;;5041075;28;20427;-66
2022/11/25 09:49:25;;;;;;;11.90;4.55;;;9.10;99.90;;;;;;5041368;28;20041;-66
2022/11/25 09:52:21;;;;;;;8.65;4.20;;;9.10;99.90;;;;;;5044605;28;20396;-66
2022/11/25 09:55:03;;;;;;;11.18;4.13;;;9.20;99.90;;;;;;5048263;28;20040;-66
2022/11/25 09:57:52;;;;;;;11.43;4.25;;;9.10;99.90;;;;;;5040903;28;20052;-66
2022/11/25 10:00:19;;;;;;;8.48;4.00;;;9.20;99.90;;;;;;5040016;28;20049;-66
2022/11/25 10:03:11;;;;;;;11.15;3.72;;;9.30;99.90;;;;;;5038768;28;20397;-66
2022/11/25 10:05:48;;;;;;;9.23;3.88;;;9.30;99.90;;;;;;5005554;28;20122;-66
2022/11/25 10:08:19;;;;;;;9.80;3.45;;;9.30;99.90;;;;;;5038378;28;20045;-66
2022/11/25 10:10:57;;;;;;;13.77;3.67;;;9.30;99.90;;;;;;5035355;28;20460;-66
2022/11/25 10:13:42;;;;;;;10.32;3.28;;;9.40;99.90;;;;;;5041748;28;20044;-65
2022/11/25 10:16:26;;;;;;;7.47;4.67;;;9.40;99.90;;;;;;5048176;28;20485;-66
2022/11/25 10:18:57;;;;;;;;;;;9.40;99.90;;;;;;5042856;28;20041;-66
2022/11/25 10:21:23;;;;;;;9.38;3.63;;;9.50;99.90;;;;;;5040392;28;19917;-66
2022/11/25 10:23:48;;;;;;;10.55;3.60;;;9.50;99.90;;;;;;5038471;28;20029;-66
2022/11/25 10:26:18;;;;;;;9.75;3.65;;;9.50;99.90;;;;;;5036256;28;20037;-66
2022/11/25 10:28:54;;;;;;;8.90;3.20;;;9.60;99.90;;;;;;5037969;28;20057;-66
2022/11/25 10:31:33;;;;;;;10.30;3.83;;;9.60;99.90;;;;;;5038553;28;20492;-66
2022/11/25 10:34:00;;;;;;;13.00;3.60;;;9.60;99.90;;;;;;5038083;28;20393;-66
2022/11/25 10:36:38;;;;;;;15.05;3.70;;;9.60;99.90;;;;;;5037914;28;20497;-66
2022/11/25 10:39:25;;;;;;;10.93;4.05;;;9.70;99.90;;;;;;5041865;28;20505;-66
2022/11/25 10:41:55;;;;;;;11.20;3.60;;;9.70;99.90;;;;;;5039023;28;20465;-66
2022/11/25 10:44:28;;;;;;;8.65;3.30;;;9.70;99.90;;;;;;5036754;28;20049;-66
2022/11/25 10:47:25;;;;;;;8.75;2.90;;;9.80;99.90;;;;;;5040084;28;20033;-66
2022/11/25 10:49:54;;;;;;;10.23;2.65;;;9.80;99.90;;;;;;5036704;28;20034;-67
2022/11/25 10:52:22;;;;;;;11.95;3.20;;;9.80;99.90;;;;;;5040914;28;20044;-66
2022/11/25 10:55:07;;;;;;;10.82;3.35;;;9.80;99.90;;;;;;5039154;28;20111;-66
2022/11/25 10:57:33;;;;;;;;;;;9.90;99.90;;;;;;5040653;28;20049;-67
2022/11/25 11:00:00;;;;;;;8.82;2.95;;;9.80;99.90;;;;;;5039747;28;19924;-66
2022/11/25 11:02:28;;;;;;;11.48;3.03;;;9.90;99.90;;;;;;5042770;28;20075;-67
2022/11/25 11:05:09;;;;;;;11.52;2.83;;;9.90;99.90;;;;;;5040071;28;20045;-66
2022/11/25 11:07:45;;;;;;;12.40;3.25;;;10.00;99.90;;;;;;5041601;28;20048;-66
2022/11/25 11:10:23;;;;;;;12.23;2.97;;;9.90;99.90;;;;;;5036576;28;20123;-66
2022/11/25 11:13:24;;;;;;;9.68;2.65;;;10.00;99.90;;;;;;5042228;28;20029;-67
2022/11/25 11:15:51;;;;;;;12.95;2.88;;;10.00;99.90;;;;;;5041707;28;20044;-67
2022/11/25 11:18:24;;;;;;;9.65;2.78;;;10.00;99.90;;;;;;5033525;28;20042;-66
2022/11/25 11:20:52;;;;;;;11.68;2.97;;;10.00;99.90;;;;;;5039892;28;20109;-67
2022/11/25 11:23:19;;;;;;;11.98;2.83;;;9.90;99.90;;;;;;5041528;28;20045;-66
2022/11/25 11:26:08;;;;;;;12.82;3.08;;;9.90;99.90;;;;;;5033125;28;20052;-67
2022/11/25 11:28:38;;;;;;;12.00;3.70;;;9.90;99.90;;;;;;5038832;28;20045;-67
2022/11/25 11:31:25;;;;;;;8.93;2.80;;;10.00;99.90;;;;;;5038012;28;20314;-67
2022/11/25 11:34:17;;;;;;;11.98;2.85;;;10.00;99.90;;;;;;5043207;28;20038;-67
2022/11/25 11:36:55;;;;;;;10.77;2.83;;;10.00;99.90;;;;;;5040776;28;20492;-66
2022/11/25 11:39:39;;;;;;;7.43;2.70;;;10.00;99.90;;;;;;5044637;28;20080;-67
2022/11/25 11:42:26;;;;;;;8.43;2.75;;;10.00;99.90;;;;;;5043417;28;20037;-66
2022/11/25 11:45:23;;;;;;;9.85;2.72;;;10.00;99.90;;;;;;5045236;28;20223;-67
2022/11/25 11:48:07;;;;;;;11.35;3.13;;;10.10;99.90;;;;;;5046815;28;20055;-67
2022/11/25 11:50:47;;;;;;;11.50;3.08;;;10.10;99.90;;;;;;5040136;28;20033;-67
2022/11/25 11:53:41;;;;;;;9.93;2.55;;;10.20;99.90;;;;;;5043610;28;20095;-66
2022/11/25 11:56:37;;;;;;;13.23;3.10;;;10.30;99.90;;;;;;5039559;28;20049;-67
2022/11/25 11:59:37;;;;;;;10.13;2.55;;;10.30;99.90;;;;;;5046419;28;20045;-66
2022/11/25 12:02:15;;;;;;;11.85;2.65;;;10.30;99.90;;;;;;5040672;28;20061;-66
2022/11/25 12:04:41;;;;;;;17.58;2.55;;;10.20;99.90;;;;;;5046738;28;20037;-67
2022/11/25 12:07:22;;;;;;;10.65;2.85;;;10.20;99.90;;;;;;5041101;28;20071;-67
2022/11/25 12:10:00;;;;;;;10.48;2.50;;;10.20;99.90;;;;;;5043456;28;20096;-67
2022/11/25 12:12:36;;;;;;;11.98;3.22;;;10.30;99.90;;;;;;5045852;28;20025;-67
2022/11/25 12:15:47;;;;;;;11.43;2.90;;;10.20;99.90;;;;;;5043915;28;20477;-66
2022/11/25 12:18:16;;;;;;;9.65;2.78;;;10.30;99.90;;;;;;5013039;28;20092;-67
2022/11/25 12:20:57;;;;;;;10.70;2.30;;;10.30;99.90;;;;;;5041235;28;20575;-67
2022/11/25 12:24:02;;;;;;;12.90;2.67;;;10.40;99.90;;;;;;5041214;28;20067;-67
2022/11/25 12:26:51;;;;;;;8.13;2.45;;;10.40;99.90;;;;;;5041163;28;20096;-67
2022/11/25 12:29:46;;;;;;;15.20;3.42;;;10.40;99.90;;;;;;5032521;28;20072;-67
2022/11/25 12:32:30;;;;;;;;;;;10.40;99.90;;;;;;5018155;28;20567;-67
2022/11/25 12:35:05;;;;;;;9.48;2.30;;;10.40;99.90;;;;;;5039743;28;19929;-67
2022/11/25 12:37:48;;;;;;;12.02;2.67;;;10.40;99.90;;;;;;5041978;28;20051;-67
2022/11/25 12:40:23;;;;;;;13.00;3.03;;;10.40;99.90;;;;;;5045782;28;20575;-67
2022/11/25 12:42:50;;;;;;;12.85;3.22;;;10.40;99.90;;;;;;5041731;28;20124;-68
2022/11/25 12:45:20;;;;;;;11.27;3.13;;;10.40;99.90;;;;;;5042379;28;20104;-67
2022/11/25 12:47:46;;;;;;;11.63;3.13;;;10.40;99.90;;;;;;5042213;28;20568;-68
2022/11/25 12:50:51;;;;;;;12.95;3.28;;;10.30;99.90;;;;;;5041839;28;20516;-67
2022/11/25 12:53:32;;;;;;;14.15;6.00;;;10.30;99.90;;;;;;5038803;28;20042;-67
2022/11/25 12:56:02;;;;;;;13.00;4.65;;;10.30;99.90;;;;;;5044271;28;20049;-67
2022/11/25 12:58:44;;;;;;;17.63;3.67;;;10.20;99.90;;;;;;5044146;28;20095;-67
2022/11/25 13:01:47;;;;;;;11.25;2.70;;;10.20;99.90;;;;;;5043080;28;20079;-67
2022/11/25 13:04:39;;;;;;;14.10;3.42;;;10.20;99.90;;;;;;5042813;28;20481;-67
2022/11/25 13:07:51;;;;;;;11.25;3.10;;;10.10;99.90;;;;;;5042172;28;20033;-67
2022/11/25 13:10:41;;;;;;;13.75;3.17;;;10.10;99.90;;;;;;5043816;28;20049;-67
2022/11/25 13:13:26;;;;;;;13.98;2.88;;;10.10;99.90;;;;;;5040860;28;20122;-67